createdAt,value
2023-02-06T00:02:26.869Z,32.65
2023-02-06T00:05:28.750Z,29.30
2023-02-06T00:08:30.476Z,31.30
2023-02-06T00:11:32.344Z,27.90
2023-02-06T00:14:34.253Z,32.63
2023-02-06T00:17:37.049Z,27.75
2023-02-06T00:20:38.983Z,28.77
2023-02-06T00:23:41.128Z,27.73
2023-02-06T00:26:43.064Z,33.90
2023-02-06T00:29:44.862Z,27.73
2023-02-06T00:32:46.612Z,29.33
2023-02-06T00:35:48.418Z,30.77
2023-02-06T00:38:50.286Z,32.35
2023-02-06T00:41:51.948Z,27.70
2023-02-06T00:44:53.685Z,31.40
2023-02-06T00:47:55.284Z,36.63
2023-02-06T00:50:57.085Z,32.17
2023-02-06T00:53:58.734Z,26.80
2023-02-06T00:57:00.410Z,30.77
2023-02-06T01:00:04.217Z,30.27
2023-02-06T01:03:05.918Z,35.03
2023-02-06T01:06:07.739Z,36.92
2023-02-06T01:09:09.368Z,31.08
2023-02-06T01:12:11.003Z,29.92
2023-02-06T01:15:13.949Z,31.80
2023-02-06T01:18:15.745Z,34.95
2023-02-06T01:21:20.798Z,28.65
2023-02-06T01:24:22.741Z,36.15
2023-02-06T01:27:24.523Z,34.90
2023-02-06T01:30:26.322Z,41.28
2023-02-06T01:33:28.084Z,33.25
2023-02-06T01:36:29.939Z,37.20
2023-02-06T01:39:31.766Z,42.70
2023-02-06T01:42:40.004Z,43.53
2023-02-06T01:45:44.090Z,40.55
2023-02-06T01:48:53.674Z,39.83
2023-02-06T01:52:31.157Z,44.40
2023-02-06T01:55:35.449Z,32.03
2023-02-06T01:58:44.558Z,36.40
2023-02-06T02:01:46.400Z,36.58
2023-02-06T02:04:48.488Z,30.98
2023-02-06T02:08:06.270Z,33.15
2023-02-06T02:11:12.274Z,34.63
2023-02-06T02:14:16.505Z,32.80
2023-02-06T02:17:35.007Z,27.38
2023-02-06T02:21:11.280Z,46.20
2023-02-06T02:24:15.459Z,38.28
2023-02-06T02:27:35.081Z,36.33
2023-02-06T02:31:08.445Z,32.85
2023-02-06T02:34:49.273Z,27.23
2023-02-06T02:38:26.234Z,28.08
2023-02-06T02:41:55.665Z,27.33
2023-02-06T02:45:06.331Z,24.48
2023-02-06T02:48:29.841Z,24.65
2023-02-06T02:51:33.890Z,26.92
2023-02-06T02:54:35.876Z,27.92
2023-02-06T02:57:37.855Z,27.23
2023-02-06T03:01:08.106Z,25.65
2023-02-06T03:04:23.075Z,30.10
2023-02-06T03:07:30.678Z,25.98
2023-02-06T03:10:58.603Z,27.38
2023-02-06T03:14:15.620Z,26.95
2023-02-06T03:17:24.674Z,26.63
2023-02-06T03:20:27.941Z,20.92
2023-02-06T03:23:33.204Z,26.23
2023-02-06T03:26:37.230Z,24.73
2023-02-06T03:29:42.684Z,24.75
2023-02-06T03:32:50.196Z,25.10
2023-02-06T03:35:52.558Z,24.05
2023-02-06T03:38:54.698Z,23.38
2023-02-06T03:41:59.738Z,26.63
2023-02-06T03:45:07.770Z,24.48
2023-02-06T03:48:19.094Z,25.70
2023-02-06T03:51:49.659Z,22.83
2023-02-06T03:55:02.382Z,24.98
2023-02-06T03:58:12.508Z,31.10
2023-02-06T04:01:14.751Z,23.47
2023-02-06T04:04:25.017Z,24.65
2023-02-06T04:07:29.829Z,22.30
2023-02-06T04:10:31.666Z,22.95
2023-02-06T04:13:33.462Z,27.88
2023-02-06T04:16:35.254Z,25.88
2023-02-06T04:19:37.226Z,26.20
2023-02-06T04:22:40.035Z,30.95
2023-02-06T04:25:41.802Z,22.10
2023-02-06T04:28:43.546Z,24.95
2023-02-06T04:31:45.219Z,25.45
2023-02-06T04:34:46.845Z,27.80
2023-02-06T04:37:48.560Z,36.78
2023-02-06T04:40:50.304Z,38.67
2023-02-06T04:43:52.130Z,29.67
2023-02-06T04:46:54.062Z,30.50
2023-02-06T04:49:55.759Z,33.20
2023-02-06T04:52:58.317Z,37.53
2023-02-06T04:56:11.903Z,46.13
2023-02-06T04:59:14.057Z,30.60
2023-02-06T05:02:15.759Z,34.00
2023-02-06T05:05:17.565Z,57.97
2023-02-06T05:08:19.772Z,79.53
2023-02-06T05:11:21.645Z,78.18
2023-02-06T05:14:23.357Z,63.30
2023-02-06T05:17:25.116Z,65.50
2023-02-06T05:20:26.934Z,89.80
2023-02-06T05:23:28.565Z,71.43
2023-02-06T05:26:30.287Z,60.55
2023-02-06T05:29:31.868Z,104.88
2023-02-06T05:32:33.539Z,80.40
2023-02-06T05:35:35.621Z,97.30
2023-02-06T05:38:37.409Z,91.60
2023-02-06T05:41:38.876Z,74.82
2023-02-06T05:44:40.843Z,91.80
2023-02-06T05:47:42.750Z,85.25
2023-02-06T05:50:45.086Z,65.93
2023-02-06T05:53:50.211Z,62.50
2023-02-06T05:56:51.884Z,75.07
2023-02-06T05:59:53.676Z,44.60
2023-02-06T06:02:55.434Z,57.50
2023-02-06T06:05:57.133Z,55.80
2023-02-06T06:09:01.327Z,59.72
2023-02-06T06:12:03.177Z,35.17
2023-02-06T06:15:05.439Z,52.63
2023-02-06T06:18:07.412Z,55.05
2023-02-06T06:21:10.692Z,77.20
2023-02-06T06:24:12.480Z,84.78
2023-02-06T06:27:14.273Z,75.22
2023-02-06T06:30:16.120Z,54.85
2023-02-06T06:33:17.836Z,67.85
2023-02-06T06:36:19.993Z,71.82
2023-02-06T06:39:21.916Z,52.92
2023-02-06T06:42:23.565Z,42.95
2023-02-06T06:45:26.427Z,84.93
2023-02-06T06:48:28.805Z,43.20
2023-02-06T06:51:30.647Z,73.53
2023-02-06T06:54:32.527Z,44.47
2023-02-06T06:57:34.300Z,43.20
2023-02-06T07:00:38.206Z,55.25
2023-02-06T07:03:44.198Z,52.63
2023-02-06T07:06:46.095Z,82.25
2023-02-06T07:09:47.952Z,60.35
2023-02-06T07:12:49.854Z,60.40
2023-02-06T07:15:51.620Z,44.30
2023-02-06T07:18:53.209Z,55.55
2023-02-06T07:21:54.791Z,27.35
2023-02-06T07:24:56.730Z,35.00
2023-02-06T07:27:59.100Z,43.10
2023-02-06T07:31:08.139Z,54.38
2023-02-06T07:34:10.046Z,55.50
2023-02-06T07:37:11.999Z,53.03
2023-02-06T07:40:13.692Z,46.55
2023-02-06T07:43:15.575Z,43.30
2023-02-06T07:46:17.358Z,28.67
2023-02-06T07:49:19.205Z,29.60
2023-02-06T07:52:22.351Z,30.33
2023-02-06T07:55:24.250Z,32.33
2023-02-06T07:58:26.367Z,26.20
2023-02-06T08:01:28.705Z,27.98
2023-02-06T08:04:35.281Z,25.80
2023-02-06T08:07:37.080Z,34.78
2023-02-06T08:10:39.888Z,22.92
2023-02-06T08:13:42.878Z,21.70
2023-02-06T08:16:44.688Z,31.92
2023-02-06T08:19:46.350Z,25.45
2023-02-06T08:22:48.192Z,28.25
2023-02-06T08:25:49.899Z,27.20
2023-02-06T08:28:52.306Z,31.13
2023-02-06T08:31:54.344Z,25.17
2023-02-06T08:34:56.132Z,25.83
2023-02-06T08:38:00.832Z,34.58
2023-02-06T08:41:03.189Z,39.97
2023-02-06T08:44:14.804Z,30.40
2023-02-06T08:47:16.509Z,28.60
2023-02-06T08:50:18.275Z,29.10
2023-02-06T08:53:20.309Z,34.05
2023-02-06T08:56:22.268Z,30.77
2023-02-06T08:59:24.608Z,41.47
2023-02-06T09:02:26.436Z,30.92
2023-02-06T09:05:28.524Z,25.70
2023-02-06T09:08:31.014Z,29.25
2023-02-06T09:11:33.585Z,34.38
2023-02-06T09:14:35.400Z,23.80
2023-02-06T09:17:37.179Z,25.70
2023-02-06T09:20:38.912Z,23.80
2023-02-06T09:23:49.818Z,27.55
2023-02-06T09:30:02.709Z,33.17
2023-02-06T09:33:04.356Z,25.70
2023-02-06T09:36:12.881Z,28.83
2023-02-06T09:39:14.721Z,26.98
2023-02-06T09:42:26.202Z,23.00
2023-02-06T09:45:29.508Z,22.45
2023-02-06T09:48:34.884Z,23.00
2023-02-06T09:51:57.210Z,25.73
2023-02-06T09:55:18.079Z,21.85
2023-02-06T09:58:26.972Z,16.95
2023-02-06T10:01:58.015Z,25.02
2023-02-06T10:08:34.288Z,27.08
2023-02-06T10:12:07.601Z,22.05
2023-02-06T10:15:17.285Z,20.33
2023-02-06T10:18:30.822Z,21.92
2023-02-06T10:21:47.989Z,21.52
2023-02-06T10:25:11.322Z,17.33
2023-02-06T10:28:26.163Z,24.58
2023-02-06T10:31:52.652Z,18.98
2023-02-06T10:35:20.352Z,26.02
2023-02-06T10:38:36.176Z,23.20
2023-02-06T10:41:58.414Z,24.30
2023-02-06T10:45:19.686Z,24.00
2023-02-06T10:48:38.333Z,25.63
2023-02-06T10:51:44.348Z,25.73
2023-02-06T10:54:56.102Z,23.95
2023-02-06T10:58:16.228Z,19.75
2023-02-06T11:01:26.089Z,17.67
2023-02-06T11:04:43.931Z,22.10
2023-02-06T11:07:50.958Z,20.33
2023-02-06T11:10:52.795Z,24.17
2023-02-06T11:14:00.188Z,21.63
2023-02-06T11:17:02.666Z,22.75
2023-02-06T11:20:26.660Z,15.88
2023-02-06T11:23:31.188Z,23.10
2023-02-06T11:26:33.014Z,22.73
2023-02-06T11:29:43.693Z,20.08
2023-02-06T11:33:02.538Z,19.90
2023-02-06T11:36:07.665Z,18.95
2023-02-06T11:39:35.654Z,17.23
2023-02-06T11:42:38.058Z,18.20
2023-02-06T11:45:41.134Z,15.73
2023-02-06T11:48:44.499Z,15.95
2023-02-06T11:51:59.751Z,19.83
2023-02-06T11:55:02.795Z,17.92
2023-02-06T11:58:13.984Z,19.63
2023-02-06T12:01:21.397Z,16.92
2023-02-06T12:04:31.777Z,15.30
2023-02-06T12:07:43.194Z,17.75
2023-02-06T12:11:04.243Z,12.98
2023-02-06T12:17:35.587Z,16.92
2023-02-06T12:20:54.542Z,15.75
2023-02-06T12:24:11.190Z,18.45
2023-02-06T12:27:21.095Z,13.77
2023-02-06T12:30:31.916Z,14.35
2023-02-06T12:33:48.441Z,17.88
2023-02-06T12:37:14.089Z,18.35
2023-02-06T12:40:38.393Z,14.65
2023-02-06T12:43:44.602Z,14.90
2023-02-06T12:46:52.101Z,14.43
2023-02-06T12:50:22.957Z,13.80
2023-02-06T12:53:57.227Z,16.55
2023-02-06T12:57:29.208Z,14.93
2023-02-06T13:00:48.993Z,12.88
2023-02-06T13:04:11.129Z,13.43
2023-02-06T13:07:16.293Z,12.32
2023-02-06T13:10:25.555Z,13.63
2023-02-06T13:13:31.061Z,12.07
2023-02-06T13:16:49.212Z,11.35
2023-02-06T13:20:05.013Z,11.98
2023-02-06T13:23:12.804Z,15.23
2023-02-06T13:26:17.420Z,18.73
2023-02-06T13:29:28.248Z,16.45
2023-02-06T13:32:31.939Z,15.60
2023-02-06T13:35:33.650Z,12.38
2023-02-06T13:38:35.305Z,13.70
2023-02-06T13:41:37.596Z,17.65
2023-02-06T13:44:40.880Z,13.00
2023-02-06T13:48:13.217Z,16.40
2023-02-06T13:51:33.789Z,14.27
2023-02-06T13:55:34.918Z,11.95
2023-02-06T13:58:41.257Z,14.60
2023-02-06T14:01:44.019Z,16.48
2023-02-06T14:04:49.683Z,12.18
2023-02-06T14:07:57.202Z,12.35
2023-02-06T14:11:41.725Z,12.35
2023-02-06T14:14:58.938Z,16.30
2023-02-06T14:18:16.114Z,13.52
2023-02-06T14:21:47.388Z,13.93
2023-02-06T14:25:11.323Z,13.80
2023-02-06T14:28:22.587Z,15.50
2023-02-06T14:31:36.476Z,13.75
2023-02-06T14:35:06.137Z,15.73
2023-02-06T14:38:45.498Z,14.70
2023-02-06T14:41:47.524Z,13.30
2023-02-06T14:44:57.312Z,15.75
2023-02-06T14:48:02.797Z,14.60
2023-02-06T14:51:06.014Z,14.32
2023-02-06T14:54:29.473Z,10.07
2023-02-06T14:57:32.286Z,10.27
2023-02-06T15:00:34.164Z,15.35
2023-02-06T15:03:36.980Z,9.25
2023-02-06T15:06:41.963Z,11.75
2023-02-06T15:09:46.673Z,11.88
2023-02-06T15:12:55.018Z,12.77
2023-02-06T15:15:57.579Z,8.73
2023-02-06T15:19:25.206Z,10.73
2023-02-06T15:22:30.037Z,12.52
2023-02-06T15:25:40.548Z,7.68
2023-02-06T15:28:44.081Z,9.45
2023-02-06T15:31:51.252Z,8.57
2023-02-06T15:34:53.422Z,10.55
2023-02-06T15:37:57.850Z,9.32
2023-02-06T15:41:07.319Z,9.60
2023-02-06T15:44:12.188Z,9.23
2023-02-06T15:47:16.774Z,9.23
2023-02-06T15:50:20.926Z,9.30
2023-02-06T15:53:40.169Z,6.38
2023-02-06T15:56:43.284Z,6.53
2023-02-06T15:59:45.642Z,9.27
2023-02-06T16:02:47.536Z,6.85
2023-02-06T16:05:50.965Z,7.65
2023-02-06T16:08:56.408Z,8.60
2023-02-06T16:11:58.485Z,6.97
2023-02-06T16:15:03.126Z,8.65
2023-02-06T16:18:30.803Z,9.40
2023-02-06T16:21:41.148Z,8.25
2023-02-06T16:24:43.747Z,8.02
2023-02-06T16:27:46.495Z,9.38
2023-02-06T16:31:05.545Z,6.93
2023-02-06T16:34:40.647Z,7.90
2023-02-06T16:37:42.357Z,7.13
2023-02-06T16:40:44.067Z,10.13
2023-02-06T16:43:45.762Z,10.90
2023-02-06T16:46:48.111Z,6.65
2023-02-06T16:49:51.159Z,8.63
2023-02-06T16:52:55.888Z,8.02
2023-02-06T16:55:58.171Z,8.95
2023-02-06T16:59:00.259Z,8.13
2023-02-06T17:02:02.115Z,6.07
2023-02-06T17:05:05.456Z,9.00
2023-02-06T17:08:24.759Z,7.82
2023-02-06T17:11:28.199Z,7.95
2023-02-06T17:14:29.835Z,9.93
2023-02-06T17:17:31.722Z,8.32
2023-02-06T17:20:39.498Z,10.90
2023-02-06T17:23:42.838Z,10.20
2023-02-06T17:26:44.537Z,11.45
2023-02-06T17:29:47.609Z,11.60
2023-02-06T17:32:50.096Z,7.57
2023-02-06T17:35:52.295Z,11.48
2023-02-06T17:38:54.085Z,9.38
2023-02-06T17:41:55.959Z,13.10
2023-02-06T17:44:57.573Z,11.70
2023-02-06T17:47:59.778Z,13.25
2023-02-06T17:51:02.147Z,13.35
2023-02-06T17:54:06.488Z,14.95
2023-02-06T17:57:08.586Z,11.48
2023-02-06T18:00:14.791Z,10.30
2023-02-06T18:03:18.416Z,10.23
2023-02-06T18:06:20.790Z,9.85
2023-02-06T18:09:22.428Z,10.70
2023-02-06T18:12:24.731Z,11.20
2023-02-06T18:15:26.525Z,8.60
2023-02-06T18:18:28.330Z,11.95
2023-02-06T18:21:31.493Z,12.82
2023-02-06T18:24:33.276Z,10.02
2023-02-06T18:27:36.952Z,13.00
2023-02-06T18:30:38.901Z,11.10
2023-02-06T18:33:41.174Z,10.98
2023-02-06T18:36:42.938Z,8.85
2023-02-06T18:39:44.748Z,10.80
2023-02-06T18:42:55.527Z,8.30
2023-02-06T18:45:59.010Z,7.60
2023-02-06T18:49:00.976Z,7.90
2023-02-06T18:52:04.279Z,9.07
2023-02-06T18:55:08.093Z,9.07
2023-02-06T18:58:10.817Z,9.65
2023-02-06T19:01:21.137Z,7.90
2023-02-06T19:04:22.903Z,7.25
2023-02-06T19:07:25.542Z,8.35
2023-02-06T19:10:27.284Z,9.18
2023-02-06T19:13:29.034Z,9.15
2023-02-06T19:16:32.968Z,8.88
2023-02-06T19:19:34.622Z,9.18
2023-02-06T19:22:38.765Z,10.45
2023-02-06T19:25:41.158Z,8.75
2023-02-06T19:28:43.701Z,6.00
2023-02-06T19:31:45.379Z,9.52
2023-02-06T19:34:47.220Z,14.10
2023-02-06T19:37:51.645Z,9.80
2023-02-06T19:40:54.292Z,9.55
2023-02-06T19:44:02.192Z,7.03
2023-02-06T19:47:04.604Z,10.77
2023-02-06T19:50:07.843Z,10.32
2023-02-06T19:53:09.884Z,9.63
2023-02-06T19:56:14.064Z,9.15
2023-02-06T19:59:24.991Z,9.25
2023-02-06T20:02:26.612Z,12.02
2023-02-06T20:05:28.402Z,10.35
2023-02-06T20:08:30.528Z,11.30
2023-02-06T20:11:33.643Z,8.02
2023-02-06T20:14:35.434Z,8.23
2023-02-06T20:17:37.099Z,10.63
2023-02-06T20:20:39.404Z,10.00
2023-02-06T20:23:41.791Z,12.60
2023-02-06T20:26:43.528Z,8.15
2023-02-06T20:29:49.705Z,8.15
2023-02-06T20:32:51.873Z,10.35
2023-02-06T20:35:53.587Z,10.10
2023-02-06T20:38:58.605Z,7.10
2023-02-06T20:42:02.832Z,9.45
2023-02-06T20:45:04.599Z,5.95
2023-02-06T20:48:06.218Z,6.88
2023-02-06T20:51:07.984Z,9.75
2023-02-06T20:54:11.579Z,8.93
2023-02-06T20:57:15.487Z,9.52
2023-02-06T21:00:20.550Z,13.32
2023-02-06T21:03:23.212Z,9.88
2023-02-06T21:06:25.815Z,12.05
2023-02-06T21:09:28.056Z,12.35
2023-02-06T21:12:29.652Z,12.52
2023-02-06T21:15:31.264Z,16.85
2023-02-06T21:18:33.677Z,15.20
2023-02-06T21:21:37.298Z,13.85
2023-02-06T21:24:39.014Z,16.85
2023-02-06T21:27:40.643Z,12.57
2023-02-06T21:30:42.325Z,13.52
2023-02-06T21:33:46.401Z,9.43
2023-02-06T21:36:49.469Z,11.80
2023-02-06T21:39:51.182Z,11.00
2023-02-06T21:42:52.805Z,9.27
2023-02-06T21:45:56.956Z,8.50
2023-02-06T21:48:59.462Z,10.50
2023-02-06T21:52:02.126Z,8.70
2023-02-06T21:55:07.437Z,10.05
2023-02-06T21:58:09.984Z,11.10
2023-02-06T22:01:16.902Z,11.52
2023-02-06T22:04:21.657Z,9.88
2023-02-06T22:07:23.306Z,11.50
2023-02-06T22:10:25.180Z,9.75
2023-02-06T22:13:29.530Z,9.93
2023-02-06T22:16:32.433Z,10.77
2023-02-06T22:19:35.097Z,9.23
2023-02-06T22:22:38.611Z,12.68
2023-02-06T22:25:47.698Z,12.65
2023-02-06T22:28:49.611Z,8.57
2023-02-06T22:31:51.464Z,9.18
2023-02-06T22:34:53.975Z,11.25
2023-02-06T22:37:56.416Z,9.45
2023-02-06T22:41:00.154Z,16.08
2023-02-06T22:44:02.079Z,21.85
2023-02-06T22:47:04.113Z,21.45
2023-02-06T22:50:06.076Z,21.20
2023-02-06T22:53:29.530Z,17.45
2023-02-06T22:56:35.937Z,13.65
2023-02-06T22:59:37.908Z,13.23
2023-02-06T23:02:39.747Z,16.02
2023-02-06T23:05:41.581Z,14.52
2023-02-06T23:08:43.836Z,14.95
2023-02-06T23:11:45.569Z,14.50
2023-02-06T23:14:47.347Z,14.02
2023-02-06T23:17:50.120Z,15.00
2023-02-06T23:21:03.779Z,12.40
2023-02-06T23:24:07.602Z,14.23
2023-02-06T23:27:09.381Z,11.75
2023-02-06T23:30:11.983Z,11.85
2023-02-06T23:33:14.513Z,13.95
2023-02-06T23:36:18.770Z,13.82
2023-02-06T23:39:21.182Z,11.90
2023-02-06T23:42:23.080Z,12.70
2023-02-06T23:45:24.921Z,11.48
2023-02-06T23:48:26.550Z,13.30
2023-02-06T23:51:31.703Z,15.73
2023-02-06T23:54:33.352Z,13.63
2023-02-06T23:57:36.532Z,15.27
